sensor_id;sensor_type;location;lat;lon;timestamp;P1;durP1;ratioP1;P2;durP2;ratioP2
74914;SDS011;63475;45.140;-75.616;2023-08-20T00:01:52;4.97;;;2.50;;
74914;SDS011;63475;45.140;-75.616;2023-08-20T00:04:00;4.97;;;2.50;;
74914;SDS011;63475;45.140;-75.616;2023-08-20T00:06:04;7.95;;;3.45;;
74914;SDS011;63475;45.140;-75.616;2023-08-20T00:08:07;4.88;;;2.65;;
74914;SDS011;63475;45.140;-75.616;2023-08-20T00:10:09;4.80;;;2.33;;
74914;SDS011;63475;45.140;-75.616;2023-08-20T00:12:12;5.20;;;2.78;;
74914;SDS011;63475;45.140;-75.616;2023-08-20T00:14:15;6.40;;;3.33;;
74914;SDS011;63475;45.140;-75.616;2023-08-20T00:16:18;5.35;;;2.67;;
74914;SDS011;63475;45.140;-75.616;2023-08-20T00:18:21;5.40;;;2.58;;
74914;SDS011;63475;45.140;-75.616;2023-08-20T00:20:24;6.35;;;2.58;;
74914;SDS011;63475;45.140;-75.616;2023-08-20T00:22:27;5.00;;;2.63;;
74914;SDS011;63475;45.140;-75.616;2023-08-20T00:24:30;6.70;;;2.30;;
74914;SDS011;63475;45.140;-75.616;2023-08-20T00:26:33;4.80;;;1.27;;
74914;SDS011;63475;45.140;-75.616;2023-08-20T00:28:36;4.20;;;2.33;;
74914;SDS011;63475;45.140;-75.616;2023-08-20T00:30:40;5.40;;;2.13;;
74914;SDS011;63475;45.140;-75.616;2023-08-20T00:32:43;4.93;;;2.58;;
74914;SDS011;63475;45.140;-75.616;2023-08-20T00:34:45;4.00;;;1.05;;
74914;SDS011;63475;45.140;-75.616;2023-08-20T00:36:48;5.60;;;2.47;;
74914;SDS011;63475;45.140;-75.616;2023-08-20T00:38:51;5.75;;;2.47;;
74914;SDS011;63475;45.140;-75.616;2023-08-20T00:40:53;6.85;;;2.75;;
74914;SDS011;63475;45.140;-75.616;2023-08-20T00:42:56;5.57;;;2.72;;
74914;SDS011;63475;45.140;-75.616;2023-08-20T00:44:59;3.65;;;1.83;;
74914;SDS011;63475;45.140;-75.616;2023-08-20T00:47:02;4.18;;;1.55;;
74914;SDS011;63475;45.140;-75.616;2023-08-20T00:49:06;5.70;;;2.53;;
74914;SDS011;63475;45.140;-75.616;2023-08-20T00:51:09;5.63;;;1.17;;
74914;SDS011;63475;45.140;-75.616;2023-08-20T00:53:11;5.57;;;2.75;;
74914;SDS011;63475;45.140;-75.616;2023-08-20T00:55:15;4.82;;;1.00;;
74914;SDS011;63475;45.140;-75.616;2023-08-20T00:57:18;5.78;;;2.10;;
74914;SDS011;63475;45.140;-75.616;2023-08-20T00:59:21;5.25;;;1.13;;
74914;SDS011;63475;45.140;-75.616;2023-08-20T01:01:25;6.18;;;2.53;;
74914;SDS011;63475;45.140;-75.616;2023-08-20T01:03:27;5.63;;;2.10;;
74914;SDS011;63475;45.140;-75.616;2023-08-20T01:05:32;4.63;;;1.92;;
74914;SDS011;63475;45.140;-75.616;2023-08-20T01:07:43;5.45;;;2.30;;
74914;SDS011;63475;45.140;-75.616;2023-08-20T01:10:04;4.65;;;0.98;;
74914;SDS011;63475;45.140;-75.616;2023-08-20T01:12:06;4.45;;;2.58;;
74914;SDS011;63475;45.140;-75.616;2023-08-20T01:14:17;5.30;;;2.13;;
74914;SDS011;63475;45.140;-75.616;2023-08-20T01:16:19;5.70;;;1.50;;
74914;SDS011;63475;45.140;-75.616;2023-08-20T01:18:23;5.05;;;2.35;;
74914;SDS011;63475;45.140;-75.616;2023-08-20T01:20:28;4.80;;;1.55;;
74914;SDS011;63475;45.140;-75.616;2023-08-20T01:24:59;6.43;;;2.45;;
74914;SDS011;63475;45.140;-75.616;2023-08-20T01:29:18;7.32;;;3.92;;
74914;SDS011;63475;45.140;-75.616;2023-08-20T01:31:21;4.82;;;1.42;;
74914;SDS011;63475;45.140;-75.616;2023-08-20T01:33:25;5.18;;;3.22;;
74914;SDS011;63475;45.140;-75.616;2023-08-20T01:35:28;6.82;;;1.70;;
74914;SDS011;63475;45.140;-75.616;2023-08-20T01:37:30;5.97;;;2.28;;
74914;SDS011;63475;45.140;-75.616;2023-08-20T01:39:33;6.50;;;2.00;;
74914;SDS011;63475;45.140;-75.616;2023-08-20T01:41:36;6.28;;;2.20;;
74914;SDS011;63475;45.140;-75.616;2023-08-20T01:43:38;5.63;;;1.70;;
74914;SDS011;63475;45.140;-75.616;2023-08-20T01:45:41;5.88;;;2.08;;
74914;SDS011;63475;45.140;-75.616;2023-08-20T01:47:45;6.93;;;2.35;;
74914;SDS011;63475;45.140;-75.616;2023-08-20T01:49:47;7.60;;;2.40;;
74914;SDS011;63475;45.140;-75.616;2023-08-20T01:51:50;5.88;;;2.42;;
74914;SDS011;63475;45.140;-75.616;2023-08-20T01:53:52;8.20;;;2.20;;
74914;SDS011;63475;45.140;-75.616;2023-08-20T01:55:55;7.32;;;2.00;;
74914;SDS011;63475;45.140;-75.616;2023-08-20T01:57:57;7.03;;;3.35;;
74914;SDS011;63475;45.140;-75.616;2023-08-20T02:00:00;7.68;;;4.28;;
74914;SDS011;63475;45.140;-75.616;2023-08-20T02:02:03;8.00;;;3.88;;
74914;SDS011;63475;45.140;-75.616;2023-08-20T02:04:06;7.13;;;3.55;;
74914;SDS011;63475;45.140;-75.616;2023-08-20T02:06:08;8.27;;;4.60;;
74914;SDS011;63475;45.140;-75.616;2023-08-20T02:08:11;9.00;;;2.60;;
74914;SDS011;63475;45.140;-75.616;2023-08-20T02:10:14;9.23;;;4.00;;
74914;SDS011;63475;45.140;-75.616;2023-08-20T02:12:17;6.03;;;2.10;;
74914;SDS011;63475;45.140;-75.616;2023-08-20T02:14:20;8.07;;;3.80;;
74914;SDS011;63475;45.140;-75.616;2023-08-20T02:16:22;8.38;;;3.92;;
74914;SDS011;63475;45.140;-75.616;2023-08-20T02:18:25;8.68;;;4.10;;
74914;SDS011;63475;45.140;-75.616;2023-08-20T02:20:27;7.07;;;3.47;;
74914;SDS011;63475;45.140;-75.616;2023-08-20T02:22:30;7.72;;;2.55;;
74914;SDS011;63475;45.140;-75.616;2023-08-20T02:24:33;8.82;;;3.05;;
74914;SDS011;63475;45.140;-75.616;2023-08-20T02:26:35;8.68;;;4.28;;
74914;SDS011;63475;45.140;-75.616;2023-08-20T02:28:38;6.45;;;2.38;;
74914;SDS011;63475;45.140;-75.616;2023-08-20T02:30:44;8.68;;;3.85;;
74914;SDS011;63475;45.140;-75.616;2023-08-20T02:32:48;6.97;;;2.42;;
74914;SDS011;63475;45.140;-75.616;2023-08-20T02:34:51;8.65;;;2.70;;
74914;SDS011;63475;45.140;-75.616;2023-08-20T02:36:54;6.88;;;2.35;;
74914;SDS011;63475;45.140;-75.616;2023-08-20T02:38:56;6.95;;;2.60;;
74914;SDS011;63475;45.140;-75.616;2023-08-20T02:40:59;8.85;;;4.38;;
74914;SDS011;63475;45.140;-75.616;2023-08-20T02:43:03;6.45;;;2.55;;
74914;SDS011;63475;45.140;-75.616;2023-08-20T02:45:05;6.93;;;2.78;;
74914;SDS011;63475;45.140;-75.616;2023-08-20T02:47:09;9.23;;;4.00;;
74914;SDS011;63475;45.140;-75.616;2023-08-20T02:49:11;9.70;;;4.00;;
74914;SDS011;63475;45.140;-75.616;2023-08-20T02:51:14;11.70;;;3.03;;
74914;SDS011;63475;45.140;-75.616;2023-08-20T02:53:16;9.52;;;2.75;;
74914;SDS011;63475;45.140;-75.616;2023-08-20T02:55:19;9.73;;;3.30;;
74914;SDS011;63475;45.140;-75.616;2023-08-20T02:57:21;8.63;;;4.07;;
74914;SDS011;63475;45.140;-75.616;2023-08-20T02:59:24;9.40;;;4.38;;
74914;SDS011;63475;45.140;-75.616;2023-08-20T03:01:27;10.65;;;5.47;;
74914;SDS011;63475;45.140;-75.616;2023-08-20T03:03:30;8.77;;;4.88;;
74914;SDS011;63475;45.140;-75.616;2023-08-20T03:05:33;13.38;;;3.72;;
74914;SDS011;63475;45.140;-75.616;2023-08-20T03:07:36;9.75;;;3.65;;
74914;SDS011;63475;45.140;-75.616;2023-08-20T03:09:38;11.70;;;5.70;;
74914;SDS011;63475;45.140;-75.616;2023-08-20T03:11:41;11.95;;;5.45;;
74914;SDS011;63475;45.140;-75.616;2023-08-20T03:13:44;12.23;;;4.38;;
74914;SDS011;63475;45.140;-75.616;2023-08-20T03:15:47;10.70;;;5.38;;
74914;SDS011;63475;45.140;-75.616;2023-08-20T03:17:50;11.43;;;4.15;;
74914;SDS011;63475;45.140;-75.616;2023-08-20T03:19:53;10.85;;;3.92;;
74914;SDS011;63475;45.140;-75.616;2023-08-20T03:22:00;10.80;;;6.20;;
74914;SDS011;63475;45.140;-75.616;2023-08-20T03:24:03;9.55;;;3.60;;
74914;SDS011;63475;45.140;-75.616;2023-08-20T03:26:06;12.32;;;4.72;;
74914;SDS011;63475;45.140;-75.616;2023-08-20T03:28:09;9.35;;;4.05;;
74914;SDS011;63475;45.140;-75.616;2023-08-20T03:30:11;10.98;;;4.80;;
74914;SDS011;63475;45.140;-75.616;2023-08-20T03:32:15;11.27;;;4.97;;
74914;SDS011;63475;45.140;-75.616;2023-08-20T03:34:18;10.32;;;5.75;;
74914;SDS011;63475;45.140;-75.616;2023-08-20T03:36:20;10.43;;;4.80;;
74914;SDS011;63475;45.140;-75.616;2023-08-20T03:38:23;11.13;;;5.68;;
74914;SDS011;63475;45.140;-75.616;2023-08-20T03:40:27;12.85;;;4.10;;
74914;SDS011;63475;45.140;-75.616;2023-08-20T03:42:30;10.23;;;6.07;;
74914;SDS011;63475;45.140;-75.616;2023-08-20T03:44:33;11.65;;;5.38;;
74914;SDS011;63475;45.140;-75.616;2023-08-20T03:46:36;12.90;;;4.50;;
74914;SDS011;63475;45.140;-75.616;2023-08-20T03:48:38;11.00;;;4.60;;
74914;SDS011;63475;45.140;-75.616;2023-08-20T03:50:41;12.73;;;5.35;;
74914;SDS011;63475;45.140;-75.616;2023-08-20T03:52:43;10.18;;;4.22;;
74914;SDS011;63475;45.140;-75.616;2023-08-20T03:54:46;10.40;;;4.10;;
74914;SDS011;63475;45.140;-75.616;2023-08-20T03:56:48;10.98;;;4.95;;
74914;SDS011;63475;45.140;-75.616;2023-08-20T03:58:51;16.38;;;4.38;;
74914;SDS011;63475;45.140;-75.616;2023-08-20T04:00:55;15.45;;;6.15;;
74914;SDS011;63475;45.140;-75.616;2023-08-20T04:02:58;15.27;;;7.00;;
74914;SDS011;63475;45.140;-75.616;2023-08-20T04:05:00;12.68;;;6.57;;
74914;SDS011;63475;45.140;-75.616;2023-08-20T04:07:03;11.50;;;6.30;;
74914;SDS011;63475;45.140;-75.616;2023-08-20T04:09:06;12.38;;;5.75;;
74914;SDS011;63475;45.140;-75.616;2023-08-20T04:11:10;13.18;;;6.60;;
74914;SDS011;63475;45.140;-75.616;2023-08-20T04:13:13;12.15;;;5.97;;
74914;SDS011;63475;45.140;-75.616;2023-08-20T04:15:16;12.90;;;7.18;;
74914;SDS011;63475;45.140;-75.616;2023-08-20T04:17:18;11.90;;;6.10;;
74914;SDS011;63475;45.140;-75.616;2023-08-20T04:19:21;9.82;;;4.47;;
74914;SDS011;63475;45.140;-75.616;2023-08-20T04:21:23;15.45;;;5.32;;
74914;SDS011;63475;45.140;-75.616;2023-08-20T04:23:26;12.68;;;5.40;;
74914;SDS011;63475;45.140;-75.616;2023-08-20T04:25:28;12.48;;;6.60;;
74914;SDS011;63475;45.140;-75.616;2023-08-20T04:27:31;12.05;;;6.00;;
74914;SDS011;63475;45.140;-75.616;2023-08-20T04:29:35;13.43;;;7.00;;
74914;SDS011;63475;45.140;-75.616;2023-08-20T04:31:37;12.15;;;6.00;;
74914;SDS011;63475;45.140;-75.616;2023-08-20T04:33:40;11.43;;;6.35;;
74914;SDS011;63475;45.140;-75.616;2023-08-20T04:35:42;13.60;;;5.40;;
74914;SDS011;63475;45.140;-75.616;2023-08-20T04:37:45;13.90;;;5.10;;
74914;SDS011;63475;45.140;-75.616;2023-08-20T04:39:47;12.07;;;4.88;;
74914;SDS011;63475;45.140;-75.616;2023-08-20T04:41:50;13.20;;;5.72;;
74914;SDS011;63475;45.140;-75.616;2023-08-20T04:43:53;14.02;;;6.45;;
74914;SDS011;63475;45.140;-75.616;2023-08-20T04:45:56;14.32;;;6.70;;
74914;SDS011;63475;45.140;-75.616;2023-08-20T04:47:59;15.23;;;7.90;;
74914;SDS011;63475;45.140;-75.616;2023-08-20T04:50:02;11.27;;;6.65;;
74914;SDS011;63475;45.140;-75.616;2023-08-20T04:52:05;14.07;;;6.10;;
74914;SDS011;63475;45.140;-75.616;2023-08-20T04:54:08;14.38;;;6.68;;
74914;SDS011;63475;45.140;-75.616;2023-08-20T04:56:10;15.45;;;7.32;;
74914;SDS011;63475;45.140;-75.616;2023-08-20T04:58:13;18.45;;;7.55;;
74914;SDS011;63475;45.140;-75.616;2023-08-20T05:00:15;13.85;;;7.65;;
74914;SDS011;63475;45.140;-75.616;2023-08-20T05:02:18;16.33;;;6.57;;
74914;SDS011;63475;45.140;-75.616;2023-08-20T05:04:21;14.57;;;7.35;;
74914;SDS011;63475;45.140;-75.616;2023-08-20T05:06:24;13.13;;;6.50;;
74914;SDS011;63475;45.140;-75.616;2023-08-20T05:08:26;14.98;;;5.63;;
74914;SDS011;63475;45.140;-75.616;2023-08-20T05:10:29;14.77;;;5.78;;
74914;SDS011;63475;45.140;-75.616;2023-08-20T05:12:31;12.98;;;5.32;;
74914;SDS011;63475;45.140;-75.616;2023-08-20T05:14:34;16.25;;;6.72;;
74914;SDS011;63475;45.140;-75.616;2023-08-20T05:16:37;13.50;;;5.65;;
74914;SDS011;63475;45.140;-75.616;2023-08-20T05:18:40;13.35;;;6.45;;
74914;SDS011;63475;45.140;-75.616;2023-08-20T05:20:42;15.85;;;7.28;;
74914;SDS011;63475;45.140;-75.616;2023-08-20T05:22:45;16.25;;;7.80;;
74914;SDS011;63475;45.140;-75.616;2023-08-20T05:24:47;16.92;;;8.90;;
74914;SDS011;63475;45.140;-75.616;2023-08-20T05:29:12;13.80;;;7.63;;
74914;SDS011;63475;45.140;-75.616;2023-08-20T05:31:14;16.08;;;7.85;;
74914;SDS011;63475;45.140;-75.616;2023-08-20T05:33:17;15.70;;;7.72;;
74914;SDS011;63475;45.140;-75.616;2023-08-20T05:35:19;16.05;;;7.93;;
74914;SDS011;63475;45.140;-75.616;2023-08-20T05:37:24;17.58;;;7.38;;
74914;SDS011;63475;45.140;-75.616;2023-08-20T05:39:27;15.50;;;7.25;;
74914;SDS011;63475;45.140;-75.616;2023-08-20T05:41:31;15.88;;;8.10;;
74914;SDS011;63475;45.140;-75.616;2023-08-20T05:43:34;15.52;;;7.68;;
74914;SDS011;63475;45.140;-75.616;2023-08-20T05:45:38;16.67;;;6.55;;
74914;SDS011;63475;45.140;-75.616;2023-08-20T05:47:41;16.30;;;9.25;;
74914;SDS011;63475;45.140;-75.616;2023-08-20T05:49:44;15.60;;;6.32;;
74914;SDS011;63475;45.140;-75.616;2023-08-20T05:51:46;13.10;;;7.30;;
74914;SDS011;63475;45.140;-75.616;2023-08-20T05:53:49;19.85;;;8.13;;
74914;SDS011;63475;45.140;-75.616;2023-08-20T05:55:51;18.35;;;8.88;;
74914;SDS011;63475;45.140;-75.616;2023-08-20T05:57:54;16.20;;;7.68;;
74914;SDS011;63475;45.140;-75.616;2023-08-20T05:59:57;17.98;;;8.38;;
74914;SDS011;63475;45.140;-75.616;2023-08-20T06:02:00;11.70;;;6.38;;
74914;SDS011;63475;45.140;-75.616;2023-08-20T06:04:04;16.88;;;8.30;;
74914;SDS011;63475;45.140;-75.616;2023-08-20T06:06:07;17.67;;;7.72;;
74914;SDS011;63475;45.140;-75.616;2023-08-20T06:08:10;15.27;;;5.47;;
74914;SDS011;63475;45.140;-75.616;2023-08-20T06:10:12;17.08;;;6.88;;
74914;SDS011;63475;45.140;-75.616;2023-08-20T06:12:15;15.98;;;7.68;;
74914;SDS011;63475;45.140;-75.616;2023-08-20T06:14:21;16.02;;;8.00;;
74914;SDS011;63475;45.140;-75.616;2023-08-20T06:16:23;14.93;;;7.80;;
74914;SDS011;63475;45.140;-75.616;2023-08-20T06:18:26;15.63;;;8.18;;
74914;SDS011;63475;45.140;-75.616;2023-08-20T06:20:28;16.13;;;9.50;;
74914;SDS011;63475;45.140;-75.616;2023-08-20T06:22:31;18.67;;;8.15;;
74914;SDS011;63475;45.140;-75.616;2023-08-20T06:24:33;16.92;;;6.75;;
74914;SDS011;63475;45.140;-75.616;2023-08-20T06:26:36;15.65;;;8.70;;
74914;SDS011;63475;45.140;-75.616;2023-08-20T06:28:38;15.93;;;7.88;;
74914;SDS011;63475;45.140;-75.616;2023-08-20T06:30:41;16.42;;;6.68;;
74914;SDS011;63475;45.140;-75.616;2023-08-20T06:32:44;18.38;;;9.05;;
74914;SDS011;63475;45.140;-75.616;2023-08-20T06:34:47;16.27;;;6.88;;
74914;SDS011;63475;45.140;-75.616;2023-08-20T06:36:49;20.88;;;6.15;;
74914;SDS011;63475;45.140;-75.616;2023-08-20T06:38:52;17.23;;;7.45;;
74914;SDS011;63475;45.140;-75.616;2023-08-20T06:40:55;15.98;;;8.48;;
74914;SDS011;63475;45.140;-75.616;2023-08-20T06:42:58;14.30;;;8.38;;
74914;SDS011;63475;45.140;-75.616;2023-08-20T06:45:00;17.60;;;8.35;;
74914;SDS011;63475;45.140;-75.616;2023-08-20T06:47:03;16.95;;;8.27;;
74914;SDS011;63475;45.140;-75.616;2023-08-20T06:49:06;18.02;;;8.88;;
74914;SDS011;63475;45.140;-75.616;2023-08-20T06:51:12;13.20;;;8.40;;
74914;SDS011;63475;45.140;-75.616;2023-08-20T06:53:15;20.05;;;7.95;;
74914;SDS011;63475;45.140;-75.616;2023-08-20T06:55:18;16.00;;;9.07;;
74914;SDS011;63475;45.140;-75.616;2023-08-20T06:57:21;17.40;;;8.98;;
74914;SDS011;63475;45.140;-75.616;2023-08-20T06:59:23;18.38;;;8.80;;
74914;SDS011;63475;45.140;-75.616;2023-08-20T07:01:26;17.90;;;8.90;;
74914;SDS011;63475;45.140;-75.616;2023-08-20T07:03:28;18.38;;;9.57;;
74914;SDS011;63475;45.140;-75.616;2023-08-20T07:05:31;19.40;;;7.55;;
74914;SDS011;63475;45.140;-75.616;2023-08-20T07:07:33;17.33;;;7.78;;
74914;SDS011;63475;45.140;-75.616;2023-08-20T07:09:36;18.00;;;9.07;;
74914;SDS011;63475;45.140;-75.616;2023-08-20T07:11:40;17.90;;;7.95;;
74914;SDS011;63475;45.140;-75.616;2023-08-20T07:13:42;16.75;;;8.38;;
74914;SDS011;63475;45.140;-75.616;2023-08-20T07:15:45;21.05;;;8.57;;
74914;SDS011;63475;45.140;-75.616;2023-08-20T07:17:47;19.58;;;8.70;;
74914;SDS011;63475;45.140;-75.616;2023-08-20T07:19:50;17.70;;;7.80;;
74914;SDS011;63475;45.140;-75.616;2023-08-20T07:21:52;15.32;;;8.23;;
74914;SDS011;63475;45.140;-75.616;2023-08-20T07:23:55;18.35;;;9.05;;
74914;SDS011;63475;45.140;-75.616;2023-08-20T07:26:04;19.17;;;8.70;;
74914;SDS011;63475;45.140;-75.616;2023-08-20T07:28:08;16.13;;;7.00;;
74914;SDS011;63475;45.140;-75.616;2023-08-20T07:30:11;20.17;;;8.60;;
74914;SDS011;63475;45.140;-75.616;2023-08-20T07:32:14;15.82;;;9.38;;
74914;SDS011;63475;45.140;-75.616;2023-08-20T07:34:16;15.80;;;8.07;;
74914;SDS011;63475;45.140;-75.616;2023-08-20T07:36:19;15.52;;;8.57;;
74914;SDS011;63475;45.140;-75.616;2023-08-20T07:38:25;20.80;;;7.75;;
74914;SDS011;63475;45.140;-75.616;2023-08-20T07:40:28;15.65;;;8.50;;
74914;SDS011;63475;45.140;-75.616;2023-08-20T07:42:32;18.30;;;9.18;;
74914;SDS011;63475;45.140;-75.616;2023-08-20T07:44:35;18.05;;;8.88;;
74914;SDS011;63475;45.140;-75.616;2023-08-20T07:46:38;17.52;;;9.23;;
74914;SDS011;63475;45.140;-75.616;2023-08-20T07:48:41;15.90;;;7.93;;
74914;SDS011;63475;45.140;-75.616;2023-08-20T07:50:45;21.25;;;9.27;;
74914;SDS011;63475;45.140;-75.616;2023-08-20T07:52:47;14.13;;;7.20;;
74914;SDS011;63475;45.140;-75.616;2023-08-20T07:54:50;14.32;;;8.30;;
74914;SDS011;63475;45.140;-75.616;2023-08-20T07:56:52;20.08;;;9.10;;
74914;SDS011;63475;45.140;-75.616;2023-08-20T07:58:55;14.98;;;8.30;;
74914;SDS011;63475;45.140;-75.616;2023-08-20T08:00:57;17.90;;;8.52;;
74914;SDS011;63475;45.140;-75.616;2023-08-20T08:03:00;19.85;;;9.25;;
74914;SDS011;63475;45.140;-75.616;2023-08-20T08:05:03;14.90;;;7.25;;
74914;SDS011;63475;45.140;-75.616;2023-08-20T08:07:06;16.58;;;9.15;;
74914;SDS011;63475;45.140;-75.616;2023-08-20T08:09:42;18.88;;;9.13;;
74914;SDS011;63475;45.140;-75.616;2023-08-20T08:11:37;20.30;;;9.02;;
74914;SDS011;63475;45.140;-75.616;2023-08-20T08:13:40;17.13;;;8.80;;
74914;SDS011;63475;45.140;-75.616;2023-08-20T08:15:42;17.77;;;9.07;;
74914;SDS011;63475;45.140;-75.616;2023-08-20T08:17:45;21.08;;;9.95;;
74914;SDS011;63475;45.140;-75.616;2023-08-20T08:19:48;19.67;;;9.18;;
74914;SDS011;63475;45.140;-75.616;2023-08-20T08:21:52;17.95;;;9.05;;
74914;SDS011;63475;45.140;-75.616;2023-08-20T08:23:56;17.88;;;9.18;;
74914;SDS011;63475;45.140;-75.616;2023-08-20T08:25:58;19.00;;;9.60;;
74914;SDS011;63475;45.140;-75.616;2023-08-20T08:28:01;18.50;;;9.18;;
74914;SDS011;63475;45.140;-75.616;2023-08-20T08:30:04;16.13;;;9.63;;
74914;SDS011;63475;45.140;-75.616;2023-08-20T08:32:07;17.05;;;9.07;;
74914;SDS011;63475;45.140;-75.616;2023-08-20T08:34:10;20.08;;;9.90;;
74914;SDS011;63475;45.140;-75.616;2023-08-20T08:36:13;14.63;;;8.48;;
74914;SDS011;63475;45.140;-75.616;2023-08-20T08:38:17;19.10;;;10.32;;
74914;SDS011;63475;45.140;-75.616;2023-08-20T08:40:19;16.95;;;8.57;;
74914;SDS011;63475;45.140;-75.616;2023-08-20T08:42:22;18.50;;;7.70;;
74914;SDS011;63475;45.140;-75.616;2023-08-20T08:44:27;15.73;;;9.40;;
74914;SDS011;63475;45.140;-75.616;2023-08-20T08:46:30;19.52;;;7.72;;
74914;SDS011;63475;45.140;-75.616;2023-08-20T08:48:34;19.98;;;10.02;;
74914;SDS011;63475;45.140;-75.616;2023-08-20T08:50:37;17.02;;;8.80;;
74914;SDS011;63475;45.140;-75.616;2023-08-20T08:52:40;17.60;;;8.88;;
74914;SDS011;63475;45.140;-75.616;2023-08-20T08:54:44;17.13;;;8.95;;
74914;SDS011;63475;45.140;-75.616;2023-08-20T08:56:49;20.88;;;9.52;;
74914;SDS011;63475;45.140;-75.616;2023-08-20T08:58:53;16.95;;;7.95;;
74914;SDS011;63475;45.140;-75.616;2023-08-20T09:00:56;17.98;;;8.80;;
74914;SDS011;63475;45.140;-75.616;2023-08-20T09:02:59;20.83;;;9.25;;
74914;SDS011;63475;45.140;-75.616;2023-08-20T09:05:01;17.23;;;9.38;;
74914;SDS011;63475;45.140;-75.616;2023-08-20T09:07:04;19.85;;;9.63;;
74914;SDS011;63475;45.140;-75.616;2023-08-20T09:09:07;21.15;;;8.38;;
74914;SDS011;63475;45.140;-75.616;2023-08-20T09:11:09;18.15;;;8.90;;
74914;SDS011;63475;45.140;-75.616;2023-08-20T09:13:12;22.52;;;9.90;;
74914;SDS011;63475;45.140;-75.616;2023-08-20T09:15:14;16.50;;;6.85;;
74914;SDS011;63475;45.140;-75.616;2023-08-20T09:17:17;18.55;;;7.20;;
74914;SDS011;63475;45.140;-75.616;2023-08-20T09:19:23;19.45;;;9.35;;
74914;SDS011;63475;45.140;-75.616;2023-08-20T09:21:32;17.77;;;9.68;;
74914;SDS011;63475;45.140;-75.616;2023-08-20T09:23:35;17.42;;;9.13;;
74914;SDS011;63475;45.140;-75.616;2023-08-20T09:25:38;17.85;;;8.98;;
74914;SDS011;63475;45.140;-75.616;2023-08-20T09:27:41;19.10;;;9.07;;
74914;SDS011;63475;45.140;-75.616;2023-08-20T09:29:44;16.27;;;8.43;;
74914;SDS011;63475;45.140;-75.616;2023-08-20T09:31:50;16.15;;;7.82;;
74914;SDS011;63475;45.140;-75.616;2023-08-20T09:34:04;17.95;;;9.30;;
74914;SDS011;63475;45.140;-75.616;2023-08-20T09:36:07;18.90;;;9.35;;
74914;SDS011;63475;45.140;-75.616;2023-08-20T09:38:10;20.33;;;7.22;;
74914;SDS011;63475;45.140;-75.616;2023-08-20T09:40:12;18.63;;;9.07;;
74914;SDS011;63475;45.140;-75.616;2023-08-20T09:42:15;18.50;;;9.38;;
74914;SDS011;63475;45.140;-75.616;2023-08-20T09:44:18;18.75;;;9.07;;
74914;SDS011;63475;45.140;-75.616;2023-08-20T09:46:24;15.70;;;8.07;;
74914;SDS011;63475;45.140;-75.616;2023-08-20T09:48:29;16.02;;;9.35;;
74914;SDS011;63475;45.140;-75.616;2023-08-20T09:50:36;19.60;;;9.88;;
74914;SDS011;63475;45.140;-75.616;2023-08-20T09:52:40;20.80;;;9.15;;
74914;SDS011;63475;45.140;-75.616;2023-08-20T09:54:57;16.85;;;8.48;;
74914;SDS011;63475;45.140;-75.616;2023-08-20T09:57:09;17.42;;;9.25;;
74914;SDS011;63475;45.140;-75.616;2023-08-20T09:59:16;17.70;;;8.60;;
74914;SDS011;63475;45.140;-75.616;2023-08-20T10:01:19;18.70;;;8.20;;
74914;SDS011;63475;45.140;-75.616;2023-08-20T10:03:22;16.70;;;8.80;;
74914;SDS011;63475;45.140;-75.616;2023-08-20T10:05:25;15.25;;;8.35;;
74914;SDS011;63475;45.140;-75.616;2023-08-20T10:07:29;21.60;;;8.90;;
74914;SDS011;63475;45.140;-75.616;2023-08-20T10:09:35;15.25;;;8.57;;
74914;SDS011;63475;45.140;-75.616;2023-08-20T10:11:39;17.98;;;8.80;;
74914;SDS011;63475;45.140;-75.616;2023-08-20T10:13:42;14.55;;;8.55;;
74914;SDS011;63475;45.140;-75.616;2023-08-20T10:15:46;17.25;;;8.73;;
74914;SDS011;63475;45.140;-75.616;2023-08-20T10:17:49;17.20;;;10.40;;
74914;SDS011;63475;45.140;-75.616;2023-08-20T10:19:52;17.85;;;9.35;;
74914;SDS011;63475;45.140;-75.616;2023-08-20T10:21:57;21.38;;;7.75;;
74914;SDS011;63475;45.140;-75.616;2023-08-20T10:24:06;20.10;;;7.30;;
74914;SDS011;63475;45.140;-75.616;2023-08-20T10:26:09;20.00;;;8.30;;
74914;SDS011;63475;45.140;-75.616;2023-08-20T10:28:13;18.70;;;8.82;;
74914;SDS011;63475;45.140;-75.616;2023-08-20T10:30:24;17.38;;;8.70;;
74914;SDS011;63475;45.140;-75.616;2023-08-20T10:32:44;17.88;;;9.98;;
74914;SDS011;63475;45.140;-75.616;2023-08-20T10:34:50;17.77;;;8.05;;
74914;SDS011;63475;45.140;-75.616;2023-08-20T10:36:55;18.02;;;9.18;;
74914;SDS011;63475;45.140;-75.616;2023-08-20T10:38:58;17.35;;;9.23;;
74914;SDS011;63475;45.140;-75.616;2023-08-20T10:41:07;16.55;;;7.80;;
74914;SDS011;63475;45.140;-75.616;2023-08-20T10:43:11;20.85;;;9.18;;
74914;SDS011;63475;45.140;-75.616;2023-08-20T10:45:28;17.15;;;9.18;;
74914;SDS011;63475;45.140;-75.616;2023-08-20T10:47:43;19.40;;;9.88;;
74914;SDS011;63475;45.140;-75.616;2023-08-20T10:49:49;20.08;;;10.38;;
74914;SDS011;63475;45.140;-75.616;2023-08-20T10:51:56;20.00;;;9.77;;
74914;SDS011;63475;45.140;-75.616;2023-08-20T10:54:07;17.65;;;10.60;;
74914;SDS011;63475;45.140;-75.616;2023-08-20T10:56:16;18.33;;;8.63;;
74914;SDS011;63475;45.140;-75.616;2023-08-20T10:58:23;15.63;;;7.93;;
74914;SDS011;63475;45.140;-75.616;2023-08-20T11:00:26;17.80;;;10.70;;
74914;SDS011;63475;45.140;-75.616;2023-08-20T11:02:30;15.10;;;9.73;;
74914;SDS011;63475;45.140;-75.616;2023-08-20T11:04:33;18.33;;;10.32;;
74914;SDS011;63475;45.140;-75.616;2023-08-20T11:06:36;21.70;;;9.40;;
74914;SDS011;63475;45.140;-75.616;2023-08-20T11:08:39;16.38;;;8.40;;
74914;SDS011;63475;45.140;-75.616;2023-08-20T11:10:41;17.02;;;9.10;;
74914;SDS011;63475;45.140;-75.616;2023-08-20T11:12:47;22.30;;;10.73;;
74914;SDS011;63475;45.140;-75.616;2023-08-20T11:14:50;17.13;;;9.35;;
74914;SDS011;63475;45.140;-75.616;2023-08-20T11:16:52;22.98;;;12.23;;
74914;SDS011;63475;45.140;-75.616;2023-08-20T11:18:55;18.10;;;8.77;;
74914;SDS011;63475;45.140;-75.616;2023-08-20T11:20:59;19.88;;;7.30;;
74914;SDS011;63475;45.140;-75.616;2023-08-20T11:23:03;17.60;;;8.85;;
74914;SDS011;63475;45.140;-75.616;2023-08-20T11:25:05;17.33;;;7.20;;
74914;SDS011;63475;45.140;-75.616;2023-08-20T11:29:19;17.63;;;7.55;;
74914;SDS011;63475;45.140;-75.616;2023-08-20T11:31:23;18.00;;;7.43;;
74914;SDS011;63475;45.140;-75.616;2023-08-20T11:33:26;17.95;;;8.63;;
74914;SDS011;63475;45.140;-75.616;2023-08-20T11:35:29;17.55;;;8.45;;
74914;SDS011;63475;45.140;-75.616;2023-08-20T11:37:31;18.20;;;9.02;;
74914;SDS011;63475;45.140;-75.616;2023-08-20T11:39:36;17.27;;;8.15;;
74914;SDS011;63475;45.140;-75.616;2023-08-20T11:41:39;16.02;;;8.88;;
74914;SDS011;63475;45.140;-75.616;2023-08-20T11:43:42;22.75;;;10.27;;
74914;SDS011;63475;45.140;-75.616;2023-08-20T11:45:46;16.42;;;8.93;;
74914;SDS011;63475;45.140;-75.616;2023-08-20T11:47:55;20.10;;;9.00;;
74914;SDS011;63475;45.140;-75.616;2023-08-20T11:50:03;21.73;;;9.43;;
74914;SDS011;63475;45.140;-75.616;2023-08-20T11:52:06;20.20;;;9.13;;
74914;SDS011;63475;45.140;-75.616;2023-08-20T11:54:10;19.60;;;10.38;;
74914;SDS011;63475;45.140;-75.616;2023-08-20T11:56:17;16.77;;;8.43;;
74914;SDS011;63475;45.140;-75.616;2023-08-20T11:58:19;18.02;;;9.32;;
74914;SDS011;63475;45.140;-75.616;2023-08-20T12:00:24;17.70;;;10.02;;
74914;SDS011;63475;45.140;-75.616;2023-08-20T12:02:30;18.95;;;9.77;;
74914;SDS011;63475;45.140;-75.616;2023-08-20T12:04:41;17.00;;;9.52;;